sensor_id;sensor_type;location;lat;lon;timestamp;temperature;humidity
6102;DHT22;3081;50.584;7.032;2022-09-01T00:01:36;17.50;84.00
6102;DHT22;3081;50.584;7.032;2022-09-01T00:04:04;17.50;84.20
6102;DHT22;3081;50.584;7.032;2022-09-01T00:06:33;17.50;84.60
6102;DHT22;3081;50.584;7.032;2022-09-01T00:09:02;17.40;85.20
6102;DHT22;3081;50.584;7.032;2022-09-01T00:11:32;17.30;85.60
6102;DHT22;3081;50.584;7.032;2022-09-01T00:14:01;17.30;85.60
6102;DHT22;3081;50.584;7.032;2022-09-01T00:16:29;17.20;86.00
6102;DHT22;3081;50.584;7.032;2022-09-01T00:18:56;17.20;85.90
6102;DHT22;3081;50.584;7.032;2022-09-01T00:21:27;17.20;86.10
6102;DHT22;3081;50.584;7.032;2022-09-01T00:23:54;17.20;86.20
6102;DHT22;3081;50.584;7.032;2022-09-01T00:26:21;17.10;86.50
6102;DHT22;3081;50.584;7.032;2022-09-01T00:28:49;17.10;86.40
6102;DHT22;3081;50.584;7.032;2022-09-01T00:31:17;17.00;86.70
6102;DHT22;3081;50.584;7.032;2022-09-01T00:33:45;17.00;87.00
6102;DHT22;3081;50.584;7.032;2022-09-01T00:36:12;16.90;87.30
6102;DHT22;3081;50.584;7.032;2022-09-01T00:38:40;16.90;87.50
6102;DHT22;3081;50.584;7.032;2022-09-01T00:41:07;16.80;87.50
6102;DHT22;3081;50.584;7.032;2022-09-01T00:43:37;16.80;87.50
6102;DHT22;3081;50.584;7.032;2022-09-01T00:46:06;16.80;87.60
6102;DHT22;3081;50.584;7.032;2022-09-01T00:48:36;16.80;87.70
6102;DHT22;3081;50.584;7.032;2022-09-01T00:51:04;16.80;87.60
6102;DHT22;3081;50.584;7.032;2022-09-01T00:53:31;16.80;88.10
6102;DHT22;3081;50.584;7.032;2022-09-01T00:56:00;16.80;87.60
6102;DHT22;3081;50.584;7.032;2022-09-01T00:58:27;16.80;87.60
6102;DHT22;3081;50.584;7.032;2022-09-01T01:00:55;16.80;87.50
6102;DHT22;3081;50.584;7.032;2022-09-01T01:03:22;16.70;87.60
6102;DHT22;3081;50.584;7.032;2022-09-01T01:05:53;16.70;87.80
6102;DHT22;3081;50.584;7.032;2022-09-01T01:08:26;16.70;87.90
6102;DHT22;3081;50.584;7.032;2022-09-01T01:10:58;16.70;88.00
6102;DHT22;3081;50.584;7.032;2022-09-01T01:13:26;16.80;88.30
6102;DHT22;3081;50.584;7.032;2022-09-01T01:15:54;16.80;87.80
6102;DHT22;3081;50.584;7.032;2022-09-01T01:18:22;16.90;87.40
6102;DHT22;3081;50.584;7.032;2022-09-01T01:20:57;16.90;87.10
6102;DHT22;3081;50.584;7.032;2022-09-01T01:23:48;16.90;87.00
6102;DHT22;3081;50.584;7.032;2022-09-01T01:26:22;16.90;86.80
6102;DHT22;3081;50.584;7.032;2022-09-01T01:28:49;16.80;86.90
6102;DHT22;3081;50.584;7.032;2022-09-01T01:31:20;16.80;87.10
6102;DHT22;3081;50.584;7.032;2022-09-01T01:33:52;16.70;87.30
6102;DHT22;3081;50.584;7.032;2022-09-01T01:36:21;16.60;87.50
6102;DHT22;3081;50.584;7.032;2022-09-01T01:38:58;16.50;87.80
6102;DHT22;3081;50.584;7.032;2022-09-01T01:41:29;16.40;88.00
6102;DHT22;3081;50.584;7.032;2022-09-01T01:43:57;16.40;88.20
6102;DHT22;3081;50.584;7.032;2022-09-01T01:46:24;16.30;88.50
6102;DHT22;3081;50.584;7.032;2022-09-01T01:48:52;16.30;88.90
6102;DHT22;3081;50.584;7.032;2022-09-01T01:51:21;16.20;89.50
6102;DHT22;3081;50.584;7.032;2022-09-01T01:53:51;16.10;89.90
6102;DHT22;3081;50.584;7.032;2022-09-01T01:56:20;16.00;90.30
6102;DHT22;3081;50.584;7.032;2022-09-01T01:58:51;16.00;90.60
6102;DHT22;3081;50.584;7.032;2022-09-01T02:01:21;15.90;90.20
6102;DHT22;3081;50.584;7.032;2022-09-01T02:03:50;15.80;90.50
6102;DHT22;3081;50.584;7.032;2022-09-01T02:06:20;15.80;90.50
6102;DHT22;3081;50.584;7.032;2022-09-01T02:08:49;15.70;90.60
6102;DHT22;3081;50.584;7.032;2022-09-01T02:11:18;15.70;90.90
6102;DHT22;3081;50.584;7.032;2022-09-01T02:13:45;15.70;90.90
6102;DHT22;3081;50.584;7.032;2022-09-01T02:16:15;15.60;90.90
6102;DHT22;3081;50.584;7.032;2022-09-01T02:18:43;15.50;91.00
6102;DHT22;3081;50.584;7.032;2022-09-01T02:21:13;15.40;91.20
6102;DHT22;3081;50.584;7.032;2022-09-01T02:23:45;15.40;91.30
6102;DHT22;3081;50.584;7.032;2022-09-01T02:26:13;15.30;91.30
6102;DHT22;3081;50.584;7.032;2022-09-01T02:28:42;15.40;91.50
6102;DHT22;3081;50.584;7.032;2022-09-01T02:31:10;15.40;91.50
6102;DHT22;3081;50.584;7.032;2022-09-01T02:33:40;15.30;91.50
6102;DHT22;3081;50.584;7.032;2022-09-01T02:36:14;15.30;91.40
6102;DHT22;3081;50.584;7.032;2022-09-01T02:38:42;15.20;91.50
6102;DHT22;3081;50.584;7.032;2022-09-01T02:41:11;15.10;91.50
6102;DHT22;3081;50.584;7.032;2022-09-01T02:43:39;15.10;91.80
6102;DHT22;3081;50.584;7.032;2022-09-01T02:46:08;15.10;92.00
6102;DHT22;3081;50.584;7.032;2022-09-01T02:48:40;15.10;92.00
6102;DHT22;3081;50.584;7.032;2022-09-01T02:51:10;15.00;92.10
6102;DHT22;3081;50.584;7.032;2022-09-01T02:53:39;15.00;92.30
6102;DHT22;3081;50.584;7.032;2022-09-01T02:56:08;14.90;92.40
6102;DHT22;3081;50.584;7.032;2022-09-01T02:58:39;14.90;92.50
6102;DHT22;3081;50.584;7.032;2022-09-01T03:01:12;14.90;92.60
6102;DHT22;3081;50.584;7.032;2022-09-01T03:03:42;14.90;92.70
6102;DHT22;3081;50.584;7.032;2022-09-01T03:06:09;14.90;92.80
6102;DHT22;3081;50.584;7.032;2022-09-01T03:08:37;14.90;92.90
6102;DHT22;3081;50.584;7.032;2022-09-01T03:11:06;14.80;93.10
6102;DHT22;3081;50.584;7.032;2022-09-01T03:13:37;14.70;93.30
6102;DHT22;3081;50.584;7.032;2022-09-01T03:16:04;14.70;93.50
6102;DHT22;3081;50.584;7.032;2022-09-01T03:18:32;14.70;93.60
6102;DHT22;3081;50.584;7.032;2022-09-01T03:21:00;14.70;93.50
6102;DHT22;3081;50.584;7.032;2022-09-01T03:23:28;14.80;93.50
6102;DHT22;3081;50.584;7.032;2022-09-01T03:25:57;14.80;93.50
6102;DHT22;3081;50.584;7.032;2022-09-01T03:28:24;14.80;93.40
6102;DHT22;3081;50.584;7.032;2022-09-01T03:30:54;14.80;93.40
6102;DHT22;3081;50.584;7.032;2022-09-01T03:33:22;14.70;93.40
6102;DHT22;3081;50.584;7.032;2022-09-01T03:35:51;14.70;93.70
6102;DHT22;3081;50.584;7.032;2022-09-01T03:38:20;14.60;94.00
6102;DHT22;3081;50.584;7.032;2022-09-01T03:40:50;14.60;94.00
6102;DHT22;3081;50.584;7.032;2022-09-01T03:43:18;14.50;94.20
6102;DHT22;3081;50.584;7.032;2022-09-01T03:45:48;14.50;94.30
6102;DHT22;3081;50.584;7.032;2022-09-01T03:48:15;14.50;94.30
6102;DHT22;3081;50.584;7.032;2022-09-01T03:50:43;14.40;94.40
6102;DHT22;3081;50.584;7.032;2022-09-01T03:53:13;14.30;94.60
6102;DHT22;3081;50.584;7.032;2022-09-01T03:55:44;14.30;94.50
6102;DHT22;3081;50.584;7.032;2022-09-01T03:58:15;14.30;94.50
6102;DHT22;3081;50.584;7.032;2022-09-01T04:00:47;14.30;94.60
6102;DHT22;3081;50.584;7.032;2022-09-01T04:03:15;14.20;94.70
6102;DHT22;3081;50.584;7.032;2022-09-01T04:05:48;14.20;94.80
6102;DHT22;3081;50.584;7.032;2022-09-01T04:08:17;14.10;94.90
6102;DHT22;3081;50.584;7.032;2022-09-01T04:10:47;14.10;95.10
6102;DHT22;3081;50.584;7.032;2022-09-01T04:13:16;14.00;95.40
6102;DHT22;3081;50.584;7.032;2022-09-01T04:15:44;14.00;95.60
6102;DHT22;3081;50.584;7.032;2022-09-01T04:18:11;13.90;95.90
6102;DHT22;3081;50.584;7.032;2022-09-01T04:20:46;13.90;96.10
6102;DHT22;3081;50.584;7.032;2022-09-01T04:23:17;13.80;96.20
6102;DHT22;3081;50.584;7.032;2022-09-01T04:25:48;13.70;96.20
6102;DHT22;3081;50.584;7.032;2022-09-01T04:28:16;13.70;96.40
6102;DHT22;3081;50.584;7.032;2022-09-01T04:30:51;13.60;96.50
6102;DHT22;3081;50.584;7.032;2022-09-01T04:33:20;13.50;96.70
6102;DHT22;3081;50.584;7.032;2022-09-01T04:35:49;13.50;97.00
6102;DHT22;3081;50.584;7.032;2022-09-01T04:38:20;13.40;97.00
6102;DHT22;3081;50.584;7.032;2022-09-01T04:40:49;13.40;97.40
6102;DHT22;3081;50.584;7.032;2022-09-01T04:43:16;13.40;97.50
6102;DHT22;3081;50.584;7.032;2022-09-01T04:45:45;13.40;97.80
6102;DHT22;3081;50.584;7.032;2022-09-01T04:48:13;13.40;98.20
6102;DHT22;3081;50.584;7.032;2022-09-01T04:50:40;13.30;98.40
6102;DHT22;3081;50.584;7.032;2022-09-01T04:53:07;13.30;99.00
6102;DHT22;3081;50.584;7.032;2022-09-01T04:55:38;13.20;99.10
6102;DHT22;3081;50.584;7.032;2022-09-01T04:58:11;13.20;99.20
6102;DHT22;3081;50.584;7.032;2022-09-01T05:00:42;13.30;99.40
6102;DHT22;3081;50.584;7.032;2022-09-01T05:03:10;13.30;99.40
6102;DHT22;3081;50.584;7.032;2022-09-01T05:05:38;13.30;99.50
6102;DHT22;3081;50.584;7.032;2022-09-01T05:08:07;13.40;99.40
6102;DHT22;3081;50.584;7.032;2022-09-01T05:10:39;13.40;99.60
6102;DHT22;3081;50.584;7.032;2022-09-01T05:13:09;13.50;99.80
6102;DHT22;3081;50.584;7.032;2022-09-01T05:15:38;13.50;99.90
6102;DHT22;3081;50.584;7.032;2022-09-01T05:18:12;13.50;99.90
6102;DHT22;3081;50.584;7.032;2022-09-01T05:20:41;13.50;99.90
6102;DHT22;3081;50.584;7.032;2022-09-01T05:23:10;13.60;99.90
6102;DHT22;3081;50.584;7.032;2022-09-01T05:25:42;13.60;99.90
6102;DHT22;3081;50.584;7.032;2022-09-01T05:28:12;13.70;99.90
6102;DHT22;3081;50.584;7.032;2022-09-01T05:30:40;13.70;99.90
6102;DHT22;3081;50.584;7.032;2022-09-01T05:33:08;13.80;99.90
6102;DHT22;3081;50.584;7.032;2022-09-01T05:35:37;13.90;99.90
6102;DHT22;3081;50.584;7.032;2022-09-01T05:38:08;14.10;99.90
6102;DHT22;3081;50.584;7.032;2022-09-01T05:40:38;14.20;99.90
6102;DHT22;3081;50.584;7.032;2022-09-01T05:43:07;14.30;99.90
6102;DHT22;3081;50.584;7.032;2022-09-01T05:45:39;14.40;99.90
6102;DHT22;3081;50.584;7.032;2022-09-01T05:48:10;14.60;99.90
6102;DHT22;3081;50.584;7.032;2022-09-01T05:50:39;14.70;99.90
6102;DHT22;3081;50.584;7.032;2022-09-01T05:53:08;14.80;99.90
6102;DHT22;3081;50.584;7.032;2022-09-01T05:55:41;15.00;99.90
6102;DHT22;3081;50.584;7.032;2022-09-01T05:58:10;15.00;99.90
6102;DHT22;3081;50.584;7.032;2022-09-01T06:00:40;15.20;99.90
6102;DHT22;3081;50.584;7.032;2022-09-01T06:03:08;15.20;99.80
6102;DHT22;3081;50.584;7.032;2022-09-01T06:05:35;15.30;99.70
6102;DHT22;3081;50.584;7.032;2022-09-01T06:08:04;15.50;99.60
6102;DHT22;3081;50.584;7.032;2022-09-01T06:10:33;15.60;99.50
6102;DHT22;3081;50.584;7.032;2022-09-01T06:13:03;15.80;99.40
6102;DHT22;3081;50.584;7.032;2022-09-01T06:15:31;15.90;99.20
6102;DHT22;3081;50.584;7.032;2022-09-01T06:18:00;16.00;99.00
6102;DHT22;3081;50.584;7.032;2022-09-01T06:20:27;16.10;98.90
6102;DHT22;3081;50.584;7.032;2022-09-01T06:22:54;16.20;98.70
6102;DHT22;3081;50.584;7.032;2022-09-01T06:25:21;16.30;98.40
6102;DHT22;3081;50.584;7.032;2022-09-01T06:27:51;16.50;98.40
6102;DHT22;3081;50.584;7.032;2022-09-01T06:30:18;16.50;97.80
6102;DHT22;3081;50.584;7.032;2022-09-01T06:32:51;16.60;97.70
6102;DHT22;3081;50.584;7.032;2022-09-01T06:35:20;16.70;97.60
6102;DHT22;3081;50.584;7.032;2022-09-01T06:37:49;16.80;97.60
6102;DHT22;3081;50.584;7.032;2022-09-01T06:40:17;16.90;97.40
6102;DHT22;3081;50.584;7.032;2022-09-01T06:42:46;17.00;97.20
6102;DHT22;3081;50.584;7.032;2022-09-01T06:45:13;17.10;97.00
6102;DHT22;3081;50.584;7.032;2022-09-01T06:47:43;17.20;96.70
6102;DHT22;3081;50.584;7.032;2022-09-01T06:50:12;17.20;96.70
6102;DHT22;3081;50.584;7.032;2022-09-01T06:52:42;17.40;96.50
6102;DHT22;3081;50.584;7.032;2022-09-01T06:55:09;17.40;96.30
6102;DHT22;3081;50.584;7.032;2022-09-01T06:57:37;17.50;96.10
6102;DHT22;3081;50.584;7.032;2022-09-01T07:00:06;17.60;96.00
6102;DHT22;3081;50.584;7.032;2022-09-01T07:02:43;17.70;95.80
6102;DHT22;3081;50.584;7.032;2022-09-01T07:05:10;17.80;95.70
6102;DHT22;3081;50.584;7.032;2022-09-01T07:07:47;17.90;95.50
6102;DHT22;3081;50.584;7.032;2022-09-01T07:10:17;18.00;95.30
6102;DHT22;3081;50.584;7.032;2022-09-01T07:12:47;18.00;95.10
6102;DHT22;3081;50.584;7.032;2022-09-01T07:15:14;18.10;94.90
6102;DHT22;3081;50.584;7.032;2022-09-01T07:17:42;18.20;94.50
6102;DHT22;3081;50.584;7.032;2022-09-01T07:20:14;18.30;94.30
6102;DHT22;3081;50.584;7.032;2022-09-01T07:22:42;18.30;94.30
6102;DHT22;3081;50.584;7.032;2022-09-01T07:25:10;18.40;94.10
6102;DHT22;3081;50.584;7.032;2022-09-01T07:27:38;18.50;94.00
6102;DHT22;3081;50.584;7.032;2022-09-01T07:30:06;18.60;94.00
6102;DHT22;3081;50.584;7.032;2022-09-01T07:32:35;18.70;93.40
6102;DHT22;3081;50.584;7.032;2022-09-01T07:35:09;18.70;93.10
6102;DHT22;3081;50.584;7.032;2022-09-01T07:37:36;18.80;92.70
6102;DHT22;3081;50.584;7.032;2022-09-01T07:40:04;18.90;92.30
6102;DHT22;3081;50.584;7.032;2022-09-01T07:42:34;19.00;92.00
6102;DHT22;3081;50.584;7.032;2022-09-01T07:45:01;19.10;91.80
6102;DHT22;3081;50.584;7.032;2022-09-01T07:47:35;19.20;91.50
6102;DHT22;3081;50.584;7.032;2022-09-01T07:50:03;19.20;91.30
6102;DHT22;3081;50.584;7.032;2022-09-01T07:52:33;19.20;90.90
6102;DHT22;3081;50.584;7.032;2022-09-01T07:55:01;19.20;90.60
6102;DHT22;3081;50.584;7.032;2022-09-01T07:57:28;19.20;90.60
6102;DHT22;3081;50.584;7.032;2022-09-01T07:59:57;19.30;90.70
6102;DHT22;3081;50.584;7.032;2022-09-01T08:02:25;19.30;90.50
6102;DHT22;3081;50.584;7.032;2022-09-01T08:04:52;19.50;90.20
6102;DHT22;3081;50.584;7.032;2022-09-01T08:07:19;19.50;90.20
6102;DHT22;3081;50.584;7.032;2022-09-01T08:09:46;19.80;89.80
6102;DHT22;3081;50.584;7.032;2022-09-01T08:12:13;19.90;89.10
6102;DHT22;3081;50.584;7.032;2022-09-01T08:14:40;20.00;88.90
6102;DHT22;3081;50.584;7.032;2022-09-01T08:17:09;20.00;88.80
6102;DHT22;3081;50.584;7.032;2022-09-01T08:19:36;20.20;88.60
6102;DHT22;3081;50.584;7.032;2022-09-01T08:22:06;20.20;88.30
6102;DHT22;3081;50.584;7.032;2022-09-01T08:24:33;20.30;87.50
6102;DHT22;3081;50.584;7.032;2022-09-01T08:27:00;20.30;87.10
6102;DHT22;3081;50.584;7.032;2022-09-01T08:29:26;20.40;86.70
6102;DHT22;3081;50.584;7.032;2022-09-01T08:31:53;20.40;86.50
6102;DHT22;3081;50.584;7.032;2022-09-01T08:34:25;20.60;86.80
6102;DHT22;3081;50.584;7.032;2022-09-01T08:36:52;20.70;86.30
6102;DHT22;3081;50.584;7.032;2022-09-01T08:39:19;20.90;86.20
6102;DHT22;3081;50.584;7.032;2022-09-01T08:41:52;21.20;85.70
6102;DHT22;3081;50.584;7.032;2022-09-01T08:44:28;21.60;84.00
6102;DHT22;3081;50.584;7.032;2022-09-01T08:47:02;21.90;83.60
6102;DHT22;3081;50.584;7.032;2022-09-01T08:49:33;22.30;82.40
6102;DHT22;3081;50.584;7.032;2022-09-01T08:52:06;23.10;80.30
6102;DHT22;3081;50.584;7.032;2022-09-01T08:54:41;24.30;76.70
6102;DHT22;3081;50.584;7.032;2022-09-01T08:57:13;25.40;73.50
6102;DHT22;3081;50.584;7.032;2022-09-01T08:59:42;26.80;68.30
6102;DHT22;3081;50.584;7.032;2022-09-01T09:02:32;27.90;64.80
6102;DHT22;3081;50.584;7.032;2022-09-01T09:05:06;28.70;62.20
6102;DHT22;3081;50.584;7.032;2022-09-01T09:07:43;29.30;59.30
6102;DHT22;3081;50.584;7.032;2022-09-01T09:10:17;29.70;58.00
6102;DHT22;3081;50.584;7.032;2022-09-01T09:12:58;29.90;57.30
6102;DHT22;3081;50.584;7.032;2022-09-01T09:15:33;30.40;56.40
6102;DHT22;3081;50.584;7.032;2022-09-01T09:18:12;30.50;55.30
6102;DHT22;3081;50.584;7.032;2022-09-01T09:20:42;30.50;55.10
6102;DHT22;3081;50.584;7.032;2022-09-01T09:23:19;30.40;55.30
6102;DHT22;3081;50.584;7.032;2022-09-01T09:25:49;31.00;54.40
6102;DHT22;3081;50.584;7.032;2022-09-01T09:28:16;31.50;52.80
6102;DHT22;3081;50.584;7.032;2022-09-01T09:30:43;32.10;51.70
6102;DHT22;3081;50.584;7.032;2022-09-01T09:33:34;32.50;51.30
6102;DHT22;3081;50.584;7.032;2022-09-01T09:36:17;32.60;51.00
6102;DHT22;3081;50.584;7.032;2022-09-01T09:38:45;33.10;49.70
6102;DHT22;3081;50.584;7.032;2022-09-01T09:41:18;33.30;49.30
6102;DHT22;3081;50.584;7.032;2022-09-01T09:43:48;33.50;48.80
6102;DHT22;3081;50.584;7.032;2022-09-01T09:46:24;33.80;47.70
6102;DHT22;3081;50.584;7.032;2022-09-01T09:49:07;33.80;47.20
6102;DHT22;3081;50.584;7.032;2022-09-01T09:51:36;33.80;47.60
6102;DHT22;3081;50.584;7.032;2022-09-01T09:54:17;33.90;47.00
6102;DHT22;3081;50.584;7.032;2022-09-01T09:56:45;34.00;46.80
6102;DHT22;3081;50.584;7.032;2022-09-01T09:59:27;34.30;46.10
6102;DHT22;3081;50.584;7.032;2022-09-01T10:01:57;34.70;45.20
6102;DHT22;3081;50.584;7.032;2022-09-01T10:04:33;34.80;45.40
6102;DHT22;3081;50.584;7.032;2022-09-01T10:07:22;35.10;45.30
6102;DHT22;3081;50.584;7.032;2022-09-01T10:09:50;35.40;44.30
6102;DHT22;3081;50.584;7.032;2022-09-01T10:12:18;35.00;45.00
6102;DHT22;3081;50.584;7.032;2022-09-01T10:14:49;34.50;45.40
6102;DHT22;3081;50.584;7.032;2022-09-01T10:17:21;34.90;45.20
6102;DHT22;3081;50.584;7.032;2022-09-01T10:19:52;35.50;44.20
6102;DHT22;3081;50.584;7.032;2022-09-01T10:22:23;35.80;43.30
6102;DHT22;3081;50.584;7.032;2022-09-01T10:24:51;35.60;43.50
6102;DHT22;3081;50.584;7.032;2022-09-01T10:27:21;35.70;42.90
6102;DHT22;3081;50.584;7.032;2022-09-01T10:29:52;35.70;43.00
6102;DHT22;3081;50.584;7.032;2022-09-01T10:32:24;35.60;43.40
6102;DHT22;3081;50.584;7.032;2022-09-01T10:34:52;34.20;44.40
6102;DHT22;3081;50.584;7.032;2022-09-01T10:37:22;33.10;46.80
6102;DHT22;3081;50.584;7.032;2022-09-01T10:40:14;33.10;47.10
6102;DHT22;3081;50.584;7.032;2022-09-01T10:42:44;33.10;46.20
6102;DHT22;3081;50.584;7.032;2022-09-01T10:45:29;33.20;46.50
6102;DHT22;3081;50.584;7.032;2022-09-01T10:48:22;34.20;45.40
6102;DHT22;3081;50.584;7.032;2022-09-01T10:50:52;34.80;43.70
6102;DHT22;3081;50.584;7.032;2022-09-01T10:53:40;34.80;44.60
6102;DHT22;3081;50.584;7.032;2022-09-01T10:56:10;35.80;43.30
6102;DHT22;3081;50.584;7.032;2022-09-01T10:58:46;36.70;42.10
6102;DHT22;3081;50.584;7.032;2022-09-01T11:01:15;36.00;41.30
6102;DHT22;3081;50.584;7.032;2022-09-01T11:03:52;34.30;43.10
6102;DHT22;3081;50.584;7.032;2022-09-01T11:09:32;32.70;46.60
6102;DHT22;3081;50.584;7.032;2022-09-01T11:12:17;34.10;45.60
6102;DHT22;3081;50.584;7.032;2022-09-01T11:14:49;35.70;43.10
6102;DHT22;3081;50.584;7.032;2022-09-01T11:17:20;37.00;41.60
6102;DHT22;3081;50.584;7.032;2022-09-01T11:19:57;37.60;40.30
6102;DHT22;3081;50.584;7.032;2022-09-01T11:22:33;36.90;40.40
6102;DHT22;3081;50.584;7.032;2022-09-01T11:25:35;36.40;42.00
6102;DHT22;3081;50.584;7.032;2022-09-01T11:31:10;36.60;41.00
6102;DHT22;3081;50.584;7.032;2022-09-01T11:34:02;36.70;40.50
6102;DHT22;3081;50.584;7.032;2022-09-01T11:36:31;36.40;41.10
6102;DHT22;3081;50.584;7.032;2022-09-01T11:39:06;36.10;40.30
6102;DHT22;3081;50.584;7.032;2022-09-01T11:41:49;36.20;41.40
6102;DHT22;3081;50.584;7.032;2022-09-01T11:44:22;37.10;40.30
6102;DHT22;3081;50.584;7.032;2022-09-01T11:46:50;37.30;40.10
6102;DHT22;3081;50.584;7.032;2022-09-01T11:49:27;37.70;39.90
6102;DHT22;3081;50.584;7.032;2022-09-01T11:51:55;37.60;39.60
6102;DHT22;3081;50.584;7.032;2022-09-01T11:54:23;37.40;39.80
6102;DHT22;3081;50.584;7.032;2022-09-01T11:56:52;37.20;40.10
6102;DHT22;3081;50.584;7.032;2022-09-01T11:59:32;37.60;39.40
6102;DHT22;3081;50.584;7.032;2022-09-01T12:02:00;37.20;39.70
6102;DHT22;3081;50.584;7.032;2022-09-01T12:04:32;36.50;40.10
6102;DHT22;3081;50.584;7.032;2022-09-01T12:07:03;36.40;40.40
6102;DHT22;3081;50.584;7.032;2022-09-01T12:09:35;36.30;40.30
6102;DHT22;3081;50.584;7.032;2022-09-01T12:12:06;36.10;40.90
6102;DHT22;3081;50.584;7.032;2022-09-01T12:14:34;36.70;40.10
6102;DHT22;3081;50.584;7.032;2022-09-01T12:17:03;37.30;39.60
6102;DHT22;3081;50.584;7.032;2022-09-01T12:19:33;37.80;38.70
6102;DHT22;3081;50.584;7.032;2022-09-01T12:22:06;38.20;38.10
6102;DHT22;3081;50.584;7.032;2022-09-01T12:24:43;38.10;38.10
6102;DHT22;3081;50.584;7.032;2022-09-01T12:27:12;37.90;38.70
6102;DHT22;3081;50.584;7.032;2022-09-01T12:29:40;38.70;38.70
6102;DHT22;3081;50.584;7.032;2022-09-01T12:32:07;39.60;36.90
6102;DHT22;3081;50.584;7.032;2022-09-01T12:34:38;39.10;36.50
6102;DHT22;3081;50.584;7.032;2022-09-01T12:37:11;38.10;37.50
6102;DHT22;3081;50.584;7.032;2022-09-01T12:39:46;36.30;39.10
6102;DHT22;3081;50.584;7.032;2022-09-01T12:42:25;35.00;40.50
6102;DHT22;3081;50.584;7.032;2022-09-01T12:44:54;33.70;41.90
6102;DHT22;3081;50.584;7.032;2022-09-01T12:47:47;32.70;43.40
6102;DHT22;3081;50.584;7.032;2022-09-01T12:50:36;33.40;44.00
6102;DHT22;3081;50.584;7.032;2022-09-01T12:53:15;35.40;41.80
6102;DHT22;3081;50.584;7.032;2022-09-01T12:58:39;37.60;37.90
6102;DHT22;3081;50.584;7.032;2022-09-01T13:01:07;37.00;38.50
6102;DHT22;3081;50.584;7.032;2022-09-01T13:03:41;36.70;38.60
6102;DHT22;3081;50.584;7.032;2022-09-01T13:06:08;37.00;39.00
6102;DHT22;3081;50.584;7.032;2022-09-01T13:08:35;37.50;39.00
6102;DHT22;3081;50.584;7.032;2022-09-01T13:11:04;37.80;38.50
6102;DHT22;3081;50.584;7.032;2022-09-01T13:13:32;37.90;37.90
6102;DHT22;3081;50.584;7.032;2022-09-01T13:16:02;38.10;38.10
6102;DHT22;3081;50.584;7.032;2022-09-01T13:18:37;39.00;36.70
6102;DHT22;3081;50.584;7.032;2022-09-01T13:21:05;39.80;35.50
6102;DHT22;3081;50.584;7.032;2022-09-01T13:23:33;39.70;34.40
6102;DHT22;3081;50.584;7.032;2022-09-01T13:26:00;38.50;35.10
6102;DHT22;3081;50.584;7.032;2022-09-01T13:28:27;37.50;37.10
6102;DHT22;3081;50.584;7.032;2022-09-01T13:30:56;38.00;37.30
6102;DHT22;3081;50.584;7.032;2022-09-01T13:33:26;39.10;36.20
6102;DHT22;3081;50.584;7.032;2022-09-01T13:35:53;39.60;35.00
6102;DHT22;3081;50.584;7.032;2022-09-01T13:38:21;38.00;35.80
6102;DHT22;3081;50.584;7.032;2022-09-01T13:40:49;36.60;37.00
6102;DHT22;3081;50.584;7.032;2022-09-01T13:43:18;35.50;38.20
6102;DHT22;3081;50.584;7.032;2022-09-01T13:45:46;34.90;39.20
6102;DHT22;3081;50.584;7.032;2022-09-01T13:48:14;34.90;39.40
6102;DHT22;3081;50.584;7.032;2022-09-01T13:50:44;35.20;39.20
6102;DHT22;3081;50.584;7.032;2022-09-01T13:53:14;36.10;39.10
6102;DHT22;3081;50.584;7.032;2022-09-01T13:55:42;37.00;37.60
6102;DHT22;3081;50.584;7.032;2022-09-01T13:58:09;38.20;36.20
6102;DHT22;3081;50.584;7.032;2022-09-01T14:00:39;38.00;35.50
6102;DHT22;3081;50.584;7.032;2022-09-01T14:03:09;36.30;36.80
6102;DHT22;3081;50.584;7.032;2022-09-01T14:05:39;36.20;37.40
6102;DHT22;3081;50.584;7.032;2022-09-01T14:08:09;37.30;37.00
6102;DHT22;3081;50.584;7.032;2022-09-01T14:10:39;38.40;36.00
6102;DHT22;3081;50.584;7.032;2022-09-01T14:13:08;39.40;35.00
6102;DHT22;3081;50.584;7.032;2022-09-01T14:15:35;40.30;34.50
6102;DHT22;3081;50.584;7.032;2022-09-01T14:18:03;41.80;33.20
6102;DHT22;3081;50.584;7.032;2022-09-01T14:20:32;42.80;31.60
6102;DHT22;3081;50.584;7.032;2022-09-01T14:23:00;44.00;30.90
6102;DHT22;3081;50.584;7.032;2022-09-01T14:25:30;43.60;30.00
6102;DHT22;3081;50.584;7.032;2022-09-01T14:27:58;42.30;31.80
6102;DHT22;3081;50.584;7.032;2022-09-01T14:30:28;43.20;31.10
6102;DHT22;3081;50.584;7.032;2022-09-01T14:32:55;43.90;30.30
6102;DHT22;3081;50.584;7.032;2022-09-01T14:35:24;43.50;30.90
6102;DHT22;3081;50.584;7.032;2022-09-01T14:37:51;43.40;30.60
6102;DHT22;3081;50.584;7.032;2022-09-01T14:40:19;44.20;30.00
6102;DHT22;3081;50.584;7.032;2022-09-01T14:42:51;44.30;29.80
6102;DHT22;3081;50.584;7.032;2022-09-01T14:45:20;43.20;30.60
6102;DHT22;3081;50.584;7.032;2022-09-01T14:47:48;43.50;30.90
6102;DHT22;3081;50.584;7.032;2022-09-01T14:50:16;43.20;29.90
6102;DHT22;3081;50.584;7.032;2022-09-01T14:52:44;40.10;31.80
6102;DHT22;3081;50.584;7.032;2022-09-01T14:55:12;37.60;34.30
6102;DHT22;3081;50.584;7.032;2022-09-01T14:57:39;35.60;36.50
6102;DHT22;3081;50.584;7.032;2022-09-01T15:00:09;34.20;38.30
6102;DHT22;3081;50.584;7.032;2022-09-01T15:02:37;32.80;40.10
6102;DHT22;3081;50.584;7.032;2022-09-01T15:05:06;32.00;41.20
6102;DHT22;3081;50.584;7.032;2022-09-01T15:07:33;31.30;42.30
6102;DHT22;3081;50.584;7.032;2022-09-01T15:10:00;30.70;43.90
6102;DHT22;3081;50.584;7.032;2022-09-01T15:12:27;30.10;44.30
6102;DHT22;3081;50.584;7.032;2022-09-01T15:14:55;29.90;45.60
6102;DHT22;3081;50.584;7.032;2022-09-01T15:17:23;31.50;45.30
6102;DHT22;3081;50.584;7.032;2022-09-01T15:19:50;35.30;41.50
6102;DHT22;3081;50.584;7.032;2022-09-01T15:22:17;38.60;37.10
6102;DHT22;3081;50.584;7.032;2022-09-01T15:24:44;40.90;34.30
6102;DHT22;3081;50.584;7.032;2022-09-01T15:27:12;42.20;32.20
6102;DHT22;3081;50.584;7.032;2022-09-01T15:29:39;42.00;31.90
6102;DHT22;3081;50.584;7.032;2022-09-01T15:32:10;42.40;31.00
6102;DHT22;3081;50.584;7.032;2022-09-01T15:34:39;42.80;30.70
6102;DHT22;3081;50.584;7.032;2022-09-01T15:37:06;42.50;30.00
6102;DHT22;3081;50.584;7.032;2022-09-01T15:39:33;41.20;31.80
6102;DHT22;3081;50.584;7.032;2022-09-01T15:42:01;39.50;32.40
6102;DHT22;3081;50.584;7.032;2022-09-01T15:44:28;38.40;34.40
6102;DHT22;3081;50.584;7.032;2022-09-01T15:46:55;39.90;34.00
6102;DHT22;3081;50.584;7.032;2022-09-01T15:49:22;42.10;31.20
6102;DHT22;3081;50.584;7.032;2022-09-01T15:51:54;43.10;30.60
6102;DHT22;3081;50.584;7.032;2022-09-01T15:54:22;44.20;30.00
6102;DHT22;3081;50.584;7.032;2022-09-01T15:56:51;45.20;29.30
6102;DHT22;3081;50.584;7.032;2022-09-01T15:59:18;46.00;29.20
6102;DHT22;3081;50.584;7.032;2022-09-01T16:01:46;46.70;28.50
6102;DHT22;3081;50.584;7.032;2022-09-01T16:04:15;47.90;27.80
6102;DHT22;3081;50.584;7.032;2022-09-01T16:06:42;48.00;27.30
6102;DHT22;3081;50.584;7.032;2022-09-01T16:09:11;48.00;27.40
6102;DHT22;3081;50.584;7.032;2022-09-01T16:11:39;48.30;27.00
6102;DHT22;3081;50.584;7.032;2022-09-01T16:14:06;48.00;27.00
6102;DHT22;3081;50.584;7.032;2022-09-01T16:16:48;47.40;27.40
6102;DHT22;3081;50.584;7.032;2022-09-01T16:19:26;46.80;27.60
6102;DHT22;3081;50.584;7.032;2022-09-01T16:22:02;47.40;27.20
6102;DHT22;3081;50.584;7.032;2022-09-01T16:24:39;48.20;26.80
6102;DHT22;3081;50.584;7.032;2022-09-01T16:27:12;48.80;26.30
6102;DHT22;3081;50.584;7.032;2022-09-01T16:29:44;48.90;26.50
6102;DHT22;3081;50.584;7.032;2022-09-01T16:32:13;49.00;25.70